Time;durP1;ratioP1;P1;durP2;ratioP2;P2;SDS_P1;SDS_P2;PMS_P1;PMS_P2;Temp;Humidity;BMP_temperature;BMP_pressure;BME280_temperature;BME280_humidity;BME280_pressure;Samples;Min_cycle;Max_cycle;Signal;HPM_P1;HPM_P2
2023/07/27 07:22:53;;;;;;;3.17;2.70;;;;;;;-145.79;100.00;76442.63;5291249;28;20405;-71
2023/07/27 07:25:27;;;;;;;2.70;2.50;;;;;;;-145.79;100.00;76438.38;5285420;28;20351;-71
2023/07/27 07:27:58;;;;;;;2.53;2.33;;;;;;;-145.79;100.00;76440.50;5287128;28;20028;-72
2023/07/27 07:30:30;;;;;;;2.30;2.10;;;;;;;-145.79;100.00;76427.78;5287144;28;20086;-73
2023/07/27 07:33:03;;;;;;;2.58;2.38;;;;;;;-145.79;100.00;76423.56;5287994;28;20025;-74
2023/07/27 07:35:38;;;;;;;2.60;2.40;;;;;;;-145.79;100.00;76410.84;5279007;28;20044;-74
2023/07/27 07:38:09;;;;;;;2.25;2.05;;;;;;;-145.79;100.00;76393.88;5268528;28;20044;-73
2023/07/27 07:40:43;;;;;;;3.78;2.20;;;;;;;-145.79;100.00;76381.16;5291917;28;20032;-74
2023/07/27 07:43:15;;;;;;;1.98;1.77;;;;;;;-145.79;100.00;76364.22;5291224;28;20144;-73
2023/07/27 07:45:48;;;;;;;1.80;1.70;;;;;;;-145.79;100.00;76359.97;5300996;28;20052;-72
2023/07/27 07:48:20;;;;;;;1.95;1.75;;;;;;;-145.79;100.00;76364.22;5287690;28;20024;-73
2023/07/27 07:50:51;;;;;;;2.17;2.00;;;;;;;-145.79;100.00;76359.97;5279930;28;20058;-74
2023/07/27 07:53:23;;;;;;;1.98;1.77;;;;;;;-145.79;100.00;76355.75;5285508;28;20101;-72
2023/07/27 07:55:54;;;;;;;2.05;1.80;;;;;;;-145.79;100.00;76351.50;5258235;28;20021;-72
2023/07/27 07:58:25;;;;;;;2.22;2.05;;;;;;;-145.79;100.00;76351.50;5258209;28;20025;-73
2023/07/27 08:00:58;;;;;;;2.65;1.70;;;;;;;-145.79;100.00;76338.78;5266636;28;20498;-74
2023/07/27 08:03:30;;;;;;;1.85;1.75;;;;;;;-145.79;100.00;76347.25;5284154;28;20467;-76
2023/07/27 08:06:02;;;;;;;1.83;1.70;;;;;;;-145.79;100.00;76336.66;5275434;28;20159;-74
2023/07/27 08:08:35;;;;;;;3.08;1.60;;;;;;;-145.79;100.00;76347.25;5269235;28;20032;-73
2023/07/27 08:11:06;;;;;;;1.73;1.63;;;;;;;-145.79;100.00;76340.91;5288676;28;20044;-73
2023/07/27 08:13:37;;;;;;;1.90;1.80;;;;;;;-145.79;100.00;76340.91;5276029;28;20055;-73
2023/07/27 08:16:09;;;;;;;2.03;1.83;;;;;;;-145.79;100.00;76332.44;5285008;28;20480;-73
2023/07/27 08:18:40;;;;;;;1.80;1.70;;;;;;;-145.79;100.00;76336.66;5278558;28;20361;-72
2023/07/27 08:21:11;;;;;;;1.60;1.50;;;;;;;-145.79;100.00;76330.31;5291248;28;20041;-72
2023/07/27 08:23:43;;;;;;;2.20;1.60;;;;;;;-145.79;100.00;76319.72;5288724;28;20028;-72
2023/07/27 08:26:14;;;;;;;2.42;1.60;;;;;;;-145.79;100.00;76313.34;5287963;28;20104;-73
2023/07/27 08:28:46;;;;;;;1.60;1.50;;;;;;;-145.79;100.00;76313.34;5290897;28;20028;-73
2023/07/27 08:31:17;;;;;;;1.88;1.60;;;;;;;-145.79;100.00;76313.34;5296958;28;20425;-73
2023/07/27 08:33:49;;;;;;;1.52;1.38;;;;;;;-145.79;100.00;76326.06;5278456;28;20029;-75
2023/07/27 08:36:20;;;;;;;5.05;4.47;;;;;;;-145.79;100.00;76311.25;5274352;28;20383;-74
2023/07/27 08:38:52;;;;;;;2.55;2.35;;;;;;;-145.79;100.00;76313.34;5280405;28;20085;-74
2023/07/27 08:41:23;;;;;;;1.67;1.58;;;;;;;-145.79;100.00;76309.13;5277148;28;20059;-77
2023/07/27 08:43:55;;;;;;;1.75;1.65;;;;;;;-145.79;100.00;76309.13;5285033;28;20055;-74
2023/07/27 08:46:29;;;;;;;1.92;1.83;;;;;;;-145.79;100.00;76315.47;5254183;28;20422;-73
2023/07/27 08:49:03;;;;;;;1.80;1.67;;;;;;;-145.79;100.00;76317.59;5268430;28;20022;-75
2023/07/27 08:51:36;;;;;;;1.77;1.67;;;;;;;-145.79;100.00;76313.34;5265271;28;20028;-73
2023/07/27 08:54:07;;;;;;;1.50;1.40;;;;;;;-145.79;100.00;76311.25;5263760;28;20051;-73
2023/07/27 08:56:39;;;;;;;1.55;1.45;;;;;;;-145.79;100.00;76313.34;5284994;28;20024;-76
2023/07/27 08:59:10;;;;;;;1.40;1.30;;;;;;;-145.79;100.00;76313.34;5280848;28;20059;-74
2023/07/27 09:01:42;;;;;;;1.30;1.20;;;;;;;-145.79;100.00;76317.59;5267944;28;20115;-74
2023/07/27 09:04:16;;;;;;;1.05;1.02;;;;;;;-145.79;100.00;76317.59;5268001;28;20452;-76
2023/07/27 09:06:50;;;;;;;1.90;1.30;;;;;;;-145.79;100.00;76311.25;5259347;28;20477;-76
2023/07/27 09:09:28;;;;;;;1.75;1.25;;;;;;;-145.79;100.00;76300.66;5280976;28;20029;-74
2023/07/27 09:12:03;;;;;;;1.48;1.10;;;;;;;-145.79;100.00;76298.53;5268369;28;20100;-75
2023/07/27 09:14:38;;;;;;;1.70;1.60;;;;;;;-145.79;100.00;76292.16;5257026;28;20155;-76
2023/07/27 09:17:12;;;;;;;1.98;1.25;;;;;;;-145.79;100.00;76287.94;5258956;28;20029;-75
2023/07/27 09:19:44;;;;;;;1.50;1.40;;;;;;;-145.79;100.00;76279.47;5257410;28;20025;-75
2023/07/27 09:22:15;;;;;;;2.15;1.50;;;;;;;-145.79;100.00;76281.56;5269836;28;20514;-75
2023/07/27 09:24:46;;;;;;;1.52;1.42;;;;;;;-145.79;100.00;76279.47;5273870;28;20029;-75
2023/07/27 09:27:18;;;;;;;1.40;1.30;;;;;;;-145.79;100.00;76279.47;5260146;28;20491;-75
2023/07/27 09:29:58;;;;;;;2.30;1.90;;;;;;;-145.79;100.00;76275.22;5250787;28;20025;-74
2023/07/27 09:32:35;;;;;;;1.60;1.50;;;;;;;-145.79;100.00;76275.22;5276035;28;20040;-75
2023/07/27 09:35:19;;;;;;;1.90;1.35;;;;;;;-145.79;100.00;76270.97;5274069;28;20055;-77
2023/07/27 09:37:51;;;;;;;3.10;2.47;;;;;;;-145.79;100.00;76258.25;5276777;28;20052;-76
2023/07/27 09:40:25;;;;;;;1.90;1.80;;;;;;;-145.79;100.00;76266.75;5276574;28;20028;-75
2023/07/27 09:42:57;;;;;;;1.67;1.58;;;;;;;-145.79;100.00;76258.25;5263150;28;20032;-73
2023/07/27 09:45:35;;;;;;;2.08;1.88;;;;;;;-145.79;100.00;76266.75;5267590;28;20155;-75
2023/07/27 09:48:07;;;;;;;1.42;1.30;;;;;;;-145.79;100.00;76266.75;5260183;28;20029;-75
2023/07/27 09:50:41;;;;;;;1.30;1.20;;;;;;;-145.79;100.00;76258.25;5265946;28;20025;-75
2023/07/27 09:53:14;;;;;;;1.65;1.40;;;;;;;-145.79;100.00;76254.03;5261162;28;20109;-75
2023/07/27 09:55:47;;;;;;;2.60;1.58;;;;;;;-145.79;100.00;76254.03;5263101;28;20021;-75
2023/07/27 09:58:18;;;;;;;2.17;1.75;;;;;;;-145.79;100.00;76247.66;5257106;28;20408;-76
2023/07/27 10:00:50;;;;;;;2.63;2.03;;;;;;;-145.79;100.00;76245.56;5271177;28;20033;-75
2023/07/27 10:03:21;;;;;;;2.03;1.85;;;;;;;-145.79;100.00;76241.31;5261073;28;20026;-76
2023/07/27 10:05:54;;;;;;;2.78;1.70;;;;;;;-145.79;100.00;76249.78;5241575;28;20532;-75
2023/07/27 10:08:26;;;;;;;1.63;1.52;;;;;;;-145.79;100.00;76245.56;5241123;28;20113;-75
2023/07/27 10:11:03;;;;;;;1.90;1.65;;;;;;;-145.79;100.00;76241.31;5248295;28;20191;-74
2023/07/27 10:13:42;;;;;;;16.42;14.85;;;;;;;-145.79;100.00;76241.31;5265571;28;20030;-76
2023/07/27 10:16:17;;;;;;;4.57;3.97;;;;;;;-145.79;100.00;76243.44;5260789;28;20021;-75
2023/07/27 10:18:52;;;;;;;13.15;2.33;;;;;;;-145.79;100.00;76241.31;5248631;28;20034;-74
2023/07/27 10:21:25;;;;;;;1.42;1.20;;;;;;;-145.79;100.00;76243.44;5255701;28;20052;-74
2023/07/27 10:24:01;;;;;;;2.03;1.50;;;;;;;-145.79;100.00;76232.84;5277145;28;20028;-75
2023/07/27 10:26:51;;;;;;;1.70;1.60;;;;;;;-145.79;100.00;76239.19;5264079;28;20064;-74
2023/07/27 10:29:25;;;;;;;7.65;1.65;;;;;;;-145.79;100.00;76237.06;5258608;28;20108;-74
2023/07/27 10:32:00;;;;;;;1.58;1.40;;;;;;;-145.79;100.00;76228.59;5258244;28;20016;-75
2023/07/27 10:34:34;;;;;;;11.40;10.40;;;;;;;-145.79;100.00;76226.47;5258391;28;20032;-76
2023/07/27 10:37:08;;;;;;;2.13;1.92;;;;;;;-145.79;100.00;76228.59;5267638;28;20052;-75
2023/07/27 10:39:50;;;;;;;1.70;1.35;;;;;;;-145.79;100.00;76232.84;5252212;28;20076;-75
2023/07/27 10:42:26;;;;;;;1.52;1.42;;;;;;;-145.79;100.00;76228.59;5239847;28;20033;-75
2023/07/27 10:44:58;;;;;;;1.35;1.25;;;;;;;-145.79;100.00;76228.59;5253891;28;20043;-75
2023/07/27 10:47:37;;;;;;;1.52;1.20;;;;;;;-145.79;100.00;76234.97;5266095;28;20033;-76
2023/07/27 10:50:09;;;;;;;44.60;40.33;;;;;;;-145.79;100.00;76243.44;5256528;28;20476;-75
2023/07/27 10:52:41;;;;;;;24.27;22.13;;;;;;;-145.79;100.00;76230.72;5257091;28;20029;-74
2023/07/27 10:55:13;;;;;;;2.53;2.33;;;;;;;-145.79;100.00;76237.06;5256632;28;20064;-74
2023/07/27 10:57:46;;;;;;;2.75;1.58;;;;;;;-145.79;100.00;76232.84;5259679;28;20056;-74
2023/07/27 11:00:18;;;;;;;1.98;1.77;;;;;;;-145.79;100.00;76245.56;5256847;28;20029;-73
2023/07/27 11:02:52;;;;;;;1.70;1.30;;;;;;;-145.79;100.00;76232.84;5241313;28;20033;-75
2023/07/27 11:05:24;;;;;;;1.70;1.60;;;;;;;-145.79;100.00;76224.38;5253300;28;20078;-75
2023/07/27 11:08:02;;;;;;;1.63;1.52;;;;;;;-145.79;100.00;76228.59;5267803;28;20028;-75
2023/07/27 11:10:33;;;;;;;1.75;1.63;;;;;;;-145.79;100.00;76220.13;5269788;28;20074;-74
2023/07/27 11:13:04;;;;;;;1.80;1.70;;;;;;;-145.79;100.00;76226.47;5260114;28;20061;-75
2023/07/27 11:15:38;;;;;;;1.60;1.50;;;;;;;-145.79;100.00;76209.53;5268690;28;20493;-75
2023/07/27 11:18:10;;;;;;;1.40;1.30;;;;;;;-145.79;100.00;76211.66;5264638;28;20113;-76
2023/07/27 11:20:41;;;;;;;1.30;1.20;;;;;;;-145.79;100.00;76203.16;5262224;28;20113;-75
2023/07/27 11:23:20;;;;;;;3.85;3.55;;;;;;;-145.79;100.00;76198.94;5248885;28;20029;-75
2023/07/27 11:25:52;;;;;;;1.50;1.40;;;;;;;-145.79;100.00;76203.16;5261968;28;20029;-74
2023/07/27 11:28:25;;;;;;;1.20;1.10;;;;;;;-145.79;100.00;76190.47;5263332;28;20025;-75
2023/07/27 11:30:56;;;;;;;0.82;0.82;;;;;;;-145.79;100.00;76188.34;5280651;28;20024;-77
2023/07/27 11:33:35;;;;;;;1.42;1.30;;;;;;;-145.79;100.00;76188.34;5268584;28;20490;-80
2023/07/27 11:36:07;;;;;;;1.50;1.20;;;;;;;-145.79;100.00;76181.97;5245182;28;20018;-77
2023/07/27 11:38:38;;;;;;;2.88;2.67;;;;;;;-145.79;100.00;76186.22;5264082;28;20060;-77
2023/07/27 11:41:10;;;;;;;1.33;1.23;;;;;;;-145.79;100.00;76181.97;5270234;28;20357;-76
2023/07/27 11:43:41;;;;;;;1.13;1.05;;;;;;;-145.79;100.00;76184.09;5274998;28;20036;-76
2023/07/27 11:46:12;;;;;;;1.52;1.23;;;;;;;-145.79;100.00;76177.75;5265563;28;20021;-77
2023/07/27 11:48:44;;;;;;;1.00;0.95;;;;;;;-145.79;100.00;76181.97;5273102;28;20095;-75
2023/07/27 11:51:18;;;;;;;1.10;1.02;;;;;;;-145.79;100.00;76186.22;5260782;28;20033;-75
2023/07/27 11:53:49;;;;;;;1.15;1.05;;;;;;;-145.79;100.00;76188.34;5256485;28;20499;-75
2023/07/27 11:56:21;;;;;;;1.80;0.98;;;;;;;-145.79;100.00;76177.75;5256481;28;20033;-75
2023/07/27 11:58:52;;;;;;;1.08;1.00;;;;;;;-145.79;100.00;76181.97;5261184;28;20357;-75
2023/07/27 12:01:24;;;;;;;0.90;0.90;;;;;;;-145.79;100.00;76181.97;5243090;28;20029;-74
2023/07/27 12:03:55;;;;;;;2.22;2.03;;;;;;;-145.79;100.00;76177.75;5268523;28;20024;-73
2023/07/27 12:06:28;;;;;;;10.07;9.15;;;;;;;-145.79;100.00;76169.25;5252834;28;20024;-74
2023/07/27 12:09:00;;;;;;;2.20;1.50;;;;;;;-145.79;100.00;76156.56;5253156;28;20486;-76
2023/07/27 12:11:33;;;;;;;1.35;1.25;;;;;;;-145.79;100.00;76160.78;5254171;28;20021;-76
2023/07/27 12:14:06;;;;;;;3.80;3.55;;;;;;;-145.79;100.00;76165.03;5256824;28;20423;-77
2023/07/27 12:16:43;;;;;;;1.40;1.30;;;;;;;-145.79;100.00;76165.03;5255955;28;20123;-76
2023/07/27 12:19:15;;;;;;;2.03;1.50;;;;;;;-145.79;100.00;76152.31;5253138;28;20021;-77
2023/07/27 12:21:47;;;;;;;2.72;1.80;;;;;;;-145.79;100.00;76150.19;5272587;28;20078;-76
2023/07/27 12:24:19;;;;;;;2.40;1.70;;;;;;;-145.79;100.00;76141.72;5266347;28;20116;-75
2023/07/27 12:26:51;;;;;;;1.85;1.40;;;;;;;-145.79;100.00;76139.59;5255849;28;20112;-75
2023/07/27 12:29:22;;;;;;;1.30;1.20;;;;;;;-145.79;100.00;76137.47;5255506;28;20166;-74
2023/07/27 12:31:54;;;;;;;33.85;30.80;;;;;;;-145.79;100.00;76135.38;5257459;28;20040;-73
2023/07/27 12:34:25;;;;;;;1.90;1.80;;;;;;;-145.79;100.00;76143.84;5257827;28;20101;-74
2023/07/27 12:36:56;;;;;;;1.60;1.50;;;;;;;-145.79;100.00;76141.72;5254228;28;20539;-73
2023/07/27 12:39:28;;;;;;;2.20;1.20;;;;;;;-145.79;100.00;76143.84;5258104;28;20484;-74
2023/07/27 12:41:59;;;;;;;1.65;1.55;;;;;;;-145.79;100.00;76141.72;5249819;28;20052;-72
2023/07/27 12:44:30;;;;;;;3.38;3.17;;;;;;;-145.79;100.00;76126.88;5268037;28;20050;-74
2023/07/27 12:47:03;;;;;;;3.47;3.17;;;;;;;-145.79;100.00;76139.59;5268875;28;20029;-74
2023/07/27 12:49:37;;;;;;;1.50;1.40;;;;;;;-145.79;100.00;76143.84;5266452;28;20027;-74
2023/07/27 12:52:08;;;;;;;1.30;1.20;;;;;;;-145.79;100.00;76160.78;5268411;28;20028;-75
2023/07/27 12:54:40;;;;;;;2.03;1.33;;;;;;;-145.79;100.00;76154.44;5271799;28;20051;-75
2023/07/27 12:57:14;;;;;;;1.13;1.10;;;;;;;-145.79;100.00;76156.56;5276655;28;20028;-74
2023/07/27 12:59:45;;;;;;;1.50;1.40;;;;;;;-145.79;100.00;76143.84;5258363;28;20029;-75
2023/07/27 13:02:17;;;;;;;1.60;1.50;;;;;;;-145.79;100.00;76141.72;5274620;28;20383;-75
2023/07/27 13:04:48;;;;;;;1.50;1.40;;;;;;;-145.79;100.00;76143.84;5272598;28;20041;-78
2023/07/27 13:07:22;;;;;;;1.35;1.25;;;;;;;-145.79;100.00;76145.97;5271303;28;20037;-76
2023/07/27 13:09:55;;;;;;;1.58;1.48;;;;;;;-145.79;100.00;76150.19;5277843;28;20061;-74
2023/07/27 13:12:26;;;;;;;1.38;1.20;;;;;;;-145.79;100.00;76156.56;5270745;28;20025;-74
2023/07/27 13:15:02;;;;;;;1.98;1.85;;;;;;;-145.79;100.00;76152.31;5274212;28;20206;-75
2023/07/27 13:17:35;;;;;;;7.20;6.60;;;;;;;-145.79;100.00;76165.03;5262056;28;20481;-74
2023/07/27 13:20:08;;;;;;;1.63;1.52;;;;;;;-145.79;100.00;76160.78;5276201;28;20044;-73
2023/07/27 13:22:40;;;;;;;1.70;1.60;;;;;;;-145.79;100.00;76152.31;5266287;28;20049;-74
2023/07/27 13:25:12;;;;;;;1.70;1.60;;;;;;;-145.79;100.00;76152.31;5240818;28;20030;-74
2023/07/27 13:27:43;;;;;;;2.85;1.80;;;;;;;-145.79;100.00;76141.72;5243387;28;20037;-74
2023/07/27 13:30:14;;;;;;;2.58;2.38;;;;;;;-145.79;100.00;76133.25;5254214;28;20476;-74
2023/07/27 13:32:48;;;;;;;5.50;5.03;;;;;;;-145.79;100.00;76135.38;5273093;28;20041;-74
2023/07/27 13:35:20;;;;;;;6.60;4.13;;;;;;;-145.79;100.00;76139.59;5250050;28;20112;-76
2023/07/27 13:37:51;;;;;;;8.93;8.23;;;;;;;-145.79;100.00;76143.84;5242979;28;20490;-76
2023/07/27 13:40:25;;;;;;;3.53;3.25;;;;;;;-145.79;100.00;76148.06;5269102;28;20384;-77
2023/07/27 13:42:57;;;;;;;2.58;2.38;;;;;;;-145.79;100.00;76143.84;5275084;28;20040;-76
2023/07/27 13:45:28;;;;;;;2.97;2.30;;;;;;;-145.79;100.00;76156.56;5277054;28;20020;-75
2023/07/27 13:47:59;;;;;;;2.70;2.50;;;;;;;-145.79;100.00;76148.06;5266635;28;20025;-76
2023/07/27 13:50:31;;;;;;;3.38;3.17;;;;;;;-145.79;100.00;76156.56;5243323;28;20048;-75
2023/07/27 13:53:03;;;;;;;3.55;3.00;;;;;;;-145.79;100.00;76150.19;5258988;28;20101;-76
2023/07/27 13:55:35;;;;;;;5.38;5.00;;;;;;;-145.79;100.00;76160.78;5275551;28;20025;-78
2023/07/27 13:58:07;;;;;;;2.45;2.25;;;;;;;-145.79;100.00;76154.44;5275150;28;20414;-77
2023/07/27 14:00:39;;;;;;;9.93;9.02;;;;;;;-145.79;100.00;76145.97;5272371;28;20027;-76
2023/07/27 14:03:10;;;;;;;2.42;2.25;;;;;;;-145.79;100.00;76152.31;5272078;28;20053;-76
2023/07/27 14:05:44;;;;;;;9.98;9.18;;;;;;;-145.79;100.00;76152.31;5269655;28;20118;-76
2023/07/27 14:08:15;;;;;;;4.95;4.55;;;;;;;-145.79;100.00;76152.31;5276833;28;20028;-76
2023/07/27 14:10:47;;;;;;;5.00;4.60;;;;;;;-145.79;100.00;76145.97;5271873;28;20357;-76
2023/07/27 14:13:18;;;;;;;2.00;1.77;;;;;;;-145.79;100.00;76139.59;5258301;28;20052;-77
2023/07/27 14:15:49;;;;;;;2.05;1.77;;;;;;;-145.79;100.00;76143.84;5278919;28;20016;-76
2023/07/27 14:18:21;;;;;;;2.08;1.77;;;;;;;-145.79;100.00;76143.84;5277865;28;20017;-73
2023/07/27 14:20:52;;;;;;;2.10;1.90;;;;;;;-145.79;100.00;76156.56;5271464;28;20052;-74
2023/07/27 14:23:24;;;;;;;1.80;1.70;;;;;;;-145.79;100.00;76156.56;5270597;28;20059;-72
2023/07/27 14:25:55;;;;;;;2.20;1.85;;;;;;;-145.79;100.00;76148.06;5266897;28;20025;-73
2023/07/27 14:28:26;;;;;;;1.73;1.60;;;;;;;-145.79;100.00;76150.19;5270091;28;20028;-73
2023/07/27 14:30:58;;;;;;;2.95;2.15;;;;;;;-145.79;100.00;76152.31;5272549;28;20510;-80
2023/07/27 14:33:29;;;;;;;2.35;1.80;;;;;;;-145.79;100.00;76165.03;5274675;28;20060;-76
2023/07/27 14:36:01;;;;;;;2.67;1.80;;;;;;;-145.79;100.00;76175.63;5271751;28;20057;-78
2023/07/27 14:38:32;;;;;;;1.88;1.77;;;;;;;-145.79;100.00;76169.25;5267366;28;20047;-77
2023/07/27 14:41:03;;;;;;;3.28;2.55;;;;;;;-145.79;100.00;76179.88;5271717;28;20032;-75
2023/07/27 14:43:35;;;;;;;2.35;1.80;;;;;;;-145.79;100.00;76167.16;5264207;28;20036;-75
2023/07/27 14:46:06;;;;;;;2.15;1.95;;;;;;;-145.79;100.00;76173.50;5278568;28;20017;-75
2023/07/27 14:48:39;;;;;;;1.90;1.80;;;;;;;-145.79;100.00;76192.56;5270016;28;20068;-76
2023/07/27 14:51:10;;;;;;;2.28;2.08;;;;;;;-145.79;100.00;76177.75;5271538;28;20035;-76
2023/07/27 14:53:41;;;;;;;2.17;1.92;;;;;;;-145.79;100.00;76179.88;5275673;28;20032;-75
2023/07/27 14:56:12;;;;;;;1.75;1.63;;;;;;;-145.79;100.00;76177.75;5270264;28;20021;-73
2023/07/27 14:58:44;;;;;;;1.63;1.52;;;;;;;-145.79;100.00;76177.75;5268428;28;20059;-75
2023/07/27 15:01:15;;;;;;;1.88;1.77;;;;;;;-145.79;100.00;76184.09;5272073;28;20033;-77
2023/07/27 15:03:47;;;;;;;1.55;1.45;;;;;;;-145.79;100.00;76188.34;5265267;28;20049;-77
2023/07/27 15:06:18;;;;;;;1.60;1.50;;;;;;;-145.79;100.00;76186.22;5266252;28;20086;-78
2023/07/27 15:08:50;;;;;;;1.80;1.70;;;;;;;-145.79;100.00;76175.63;5268322;28;20029;-78
2023/07/27 15:11:21;;;;;;;8.93;8.00;;;;;;;-145.79;100.00;76171.38;5270719;28;20116;-74
2023/07/27 15:13:53;;;;;;;2.28;1.88;;;;;;;-145.79;100.00;76184.09;5273143;28;20087;-74
2023/07/27 15:16:25;;;;;;;1.83;1.70;;;;;;;-145.79;100.00;76177.75;5271463;28;20043;-73
2023/07/27 15:18:57;;;;;;;2.13;1.70;;;;;;;-145.79;100.00;76175.63;5267808;28;20055;-74
2023/07/27 15:21:28;;;;;;;1.90;1.80;;;;;;;-145.79;100.00;76165.03;5270013;28;20069;-75
2023/07/27 15:24:00;;;;;;;1.65;1.55;;;;;;;-145.79;100.00;76162.91;5272206;28;20107;-75
2023/07/27 15:26:31;;;;;;;4.43;4.13;;;;;;;-145.79;100.00;76171.38;5264736;28;20021;-75
2023/07/27 15:29:05;;;;;;;1.77;1.67;;;;;;;-145.79;100.00;76186.22;5266440;28;20021;-76
2023/07/27 15:31:36;;;;;;;1.92;1.83;;;;;;;-145.79;100.00;76188.34;5274869;28;20028;-74
2023/07/27 15:34:07;;;;;;;1.48;1.38;;;;;;;-145.79;100.00;76192.56;5270663;28;20032;-74
2023/07/27 15:36:38;;;;;;;1.83;1.50;;;;;;;-145.79;100.00;76203.16;5270958;28;20028;-73
2023/07/27 15:39:10;;;;;;;1.60;1.50;;;;;;;-145.79;100.00;76198.94;5266543;28;20480;-75
2023/07/27 15:41:41;;;;;;;1.55;1.45;;;;;;;-145.79;100.00;76196.81;5246375;28;20116;-74
2023/07/27 15:44:15;;;;;;;3.92;3.63;;;;;;;-145.79;100.00;76194.69;5256045;28;20439;-75
2023/07/27 15:46:47;;;;;;;1.30;1.20;;;;;;;-145.79;100.00;76205.28;5255661;28;20033;-73
2023/07/27 15:49:18;;;;;;;1.63;1.50;;;;;;;-145.79;100.00;76203.16;5271831;28;20530;-74
2023/07/27 15:51:49;;;;;;;1.85;1.15;;;;;;;-145.79;100.00;76207.41;5281456;28;20078;-78
2023/07/27 15:54:27;;;;;;;2.30;1.23;;;;;;;-145.79;100.00;76215.88;5269971;28;20021;-80
2023/07/27 15:56:58;;;;;;;1.10;1.10;;;;;;;-145.79;100.00;76209.53;5278070;28;20127;-75
2023/07/27 15:59:29;;;;;;;1.00;1.00;;;;;;;-145.79;100.00;76196.81;5281652;28;20055;-72
2023/07/27 16:02:01;;;;;;;5.05;4.60;;;;;;;-145.79;100.00;76207.41;5263923;28;20087;-73
2023/07/27 16:04:35;;;;;;;15.80;14.45;;;;;;;-145.79;100.00;76218.00;5273712;28;20082;-73
2023/07/27 16:07:06;;;;;;;6.85;6.22;;;;;;;-145.79;100.00;76207.41;5263309;28;20065;-73
2023/07/27 16:09:37;;;;;;;1.60;1.50;;;;;;;-145.79;100.00;76213.75;5265412;28;20564;-73
2023/07/27 16:12:09;;;;;;;1.45;1.35;;;;;;;-145.79;100.00;76211.66;5243967;28;20026;-73
2023/07/27 16:14:41;;;;;;;1.48;1.38;;;;;;;-145.79;100.00;76209.53;5257736;28;20083;-73
2023/07/27 16:17:12;;;;;;;1.63;1.10;;;;;;;-145.79;100.00;76203.16;5267916;28;20029;-72
2023/07/27 16:19:43;;;;;;;2.00;1.60;;;;;;;-145.79;100.00;76196.81;5273357;28;20032;-73
2023/07/27 16:22:16;;;;;;;1.98;1.30;;;;;;;-145.79;100.00;76201.06;5279081;28;20048;-74
2023/07/27 16:24:51;;;;;;;1.58;1.48;;;;;;;-145.79;100.00;76207.41;5274158;28;20070;-74
2023/07/27 16:27:24;;;;;;;1.88;1.75;;;;;;;-145.79;100.00;76198.94;5281511;28;20094;-74
2023/07/27 16:29:55;;;;;;;2.10;1.90;;;;;;;-145.79;100.00;76215.88;5265303;28;20036;-73
2023/07/27 16:32:27;;;;;;;3.17;2.88;;;;;;;-145.79;100.00;76215.88;5273035;28;20056;-73
2023/07/27 16:34:58;;;;;;;2.17;2.08;;;;;;;-145.79;100.00;76213.75;5273095;28;20458;-73
2023/07/27 16:37:29;;;;;;;2.30;1.85;;;;;;;-145.79;100.00;76220.13;5271846;28;20051;-73
2023/07/27 16:40:02;;;;;;;1.98;1.77;;;;;;;-145.79;100.00;76224.38;5274927;28;20065;-74
2023/07/27 16:42:33;;;;;;;2.28;2.10;;;;;;;-145.79;100.00;76232.84;5272029;28;20044;-74
2023/07/27 16:45:05;;;;;;;2.00;1.90;;;;;;;-145.79;100.00;76228.59;5274199;28;20095;-74
2023/07/27 16:47:39;;;;;;;2.58;2.38;;;;;;;-145.79;100.00;76239.19;5276770;28;20028;-74
2023/07/27 16:50:11;;;;;;;2.97;2.72;;;;;;;-145.79;100.00;76230.72;5273318;28;20036;-74
2023/07/27 16:52:42;;;;;;;3.13;2.30;;;;;;;-145.79;100.00;76226.47;5272885;28;20037;-72
